sensor_id;sensor_type;location;lat;lon;timestamp;pressure;altitude;pressure_sealevel;temperature;humidity
55460;BME280;41326;45.302;-122.946;2022-09-21T00:00:42;100593.70;;;23.02;50.30
55460;BME280;41326;45.302;-122.946;2022-09-21T00:03:12;100590.04;;;22.91;48.96
55460;BME280;41326;45.302;-122.946;2022-09-21T00:05:41;100589.46;;;22.76;45.80
55460;BME280;41326;45.302;-122.946;2022-09-21T00:08:12;100592.65;;;22.66;44.77
55460;BME280;41326;45.302;-122.946;2022-09-21T00:10:55;100593.47;;;22.38;49.03
55460;BME280;41326;45.302;-122.946;2022-09-21T00:13:12;100593.07;;;22.12;50.95
55460;BME280;41326;45.302;-122.946;2022-09-21T00:15:44;100588.97;;;22.21;50.96
55460;BME280;41326;45.302;-122.946;2022-09-21T00:18:22;100587.01;;;22.37;50.70
55460;BME280;41326;45.302;-122.946;2022-09-21T00:20:46;100585.57;;;22.58;50.29
55460;BME280;41326;45.302;-122.946;2022-09-21T00:23:13;100585.99;;;22.69;50.11
55460;BME280;41326;45.302;-122.946;2022-09-21T00:25:44;100585.58;;;22.81;49.91
55460;BME280;41326;45.302;-122.946;2022-09-21T00:28:14;100582.20;;;22.84;50.39
55460;BME280;41326;45.302;-122.946;2022-09-21T00:30:45;100582.83;;;22.71;51.47
55460;BME280;41326;45.302;-122.946;2022-09-21T00:33:15;100584.39;;;22.73;51.61
55460;BME280;41326;45.302;-122.946;2022-09-21T00:35:46;100583.61;;;22.82;50.19
55460;BME280;41326;45.302;-122.946;2022-09-21T00:38:16;100581.85;;;22.77;49.08
55460;BME280;41326;45.302;-122.946;2022-09-21T00:40:46;100580.80;;;22.60;47.14
55460;BME280;41326;45.302;-122.946;2022-09-21T00:43:18;100581.79;;;22.48;44.68
55460;BME280;41326;45.302;-122.946;2022-09-21T00:45:47;100584.58;;;22.29;47.04
55460;BME280;41326;45.302;-122.946;2022-09-21T00:48:17;100588.85;;;21.93;50.26
55460;BME280;41326;45.302;-122.946;2022-09-21T00:50:51;100587.86;;;21.93;51.36
55460;BME280;41326;45.302;-122.946;2022-09-21T00:53:18;100587.72;;;22.06;51.16
55460;BME280;41326;45.302;-122.946;2022-09-21T00:55:52;100591.04;;;22.15;50.99
55460;BME280;41326;45.302;-122.946;2022-09-21T00:58:21;100588.40;;;22.32;50.59
55460;BME280;41326;45.302;-122.946;2022-09-21T01:00:48;100588.57;;;22.47;50.27
55460;BME280;41326;45.302;-122.946;2022-09-21T01:03:19;100587.26;;;22.60;49.95
55460;BME280;41326;45.302;-122.946;2022-09-21T01:05:49;100588.59;;;22.67;49.87
55460;BME280;41326;45.302;-122.946;2022-09-21T01:08:20;100585.61;;;22.79;50.20
55460;BME280;41326;45.302;-122.946;2022-09-21T01:11:03;100587.06;;;22.80;51.10
55460;BME280;41326;45.302;-122.946;2022-09-21T01:13:28;100584.03;;;22.74;51.54
55460;BME280;41326;45.302;-122.946;2022-09-21T01:15:56;100585.55;;;22.83;51.39
55460;BME280;41326;45.302;-122.946;2022-09-21T01:18:27;100582.87;;;22.87;51.30
55460;BME280;41326;45.302;-122.946;2022-09-21T01:23:36;100584.32;;;22.74;44.69
55460;BME280;41326;45.302;-122.946;2022-09-21T01:26:01;100584.09;;;22.49;44.33
55460;BME280;41326;45.302;-122.946;2022-09-21T01:28:30;100582.92;;;22.46;44.83
55460;BME280;41326;45.302;-122.946;2022-09-21T01:30:55;100586.43;;;22.19;49.67
55460;BME280;41326;45.302;-122.946;2022-09-21T01:33:28;100587.36;;;22.18;50.78
55460;BME280;41326;45.302;-122.946;2022-09-21T01:35:56;100589.81;;;22.21;51.02
55460;BME280;41326;45.302;-122.946;2022-09-21T01:38:29;100589.58;;;22.40;51.06
55460;BME280;41326;45.302;-122.946;2022-09-21T01:40:57;100594.70;;;22.54;50.17
55460;BME280;41326;45.302;-122.946;2022-09-21T01:43:29;100591.50;;;22.59;45.56
55460;BME280;41326;45.302;-122.946;2022-09-21T01:45:56;100587.17;;;22.38;44.62
55460;BME280;41326;45.302;-122.946;2022-09-21T01:48:26;100591.79;;;22.20;44.22
55460;BME280;41326;45.302;-122.946;2022-09-21T01:50:56;100589.84;;;21.98;44.81
55460;BME280;41326;45.302;-122.946;2022-09-21T01:53:29;100588.66;;;21.92;49.79
55460;BME280;41326;45.302;-122.946;2022-09-21T01:56:00;100590.80;;;21.91;50.78
55460;BME280;41326;45.302;-122.946;2022-09-21T01:58:30;100588.33;;;22.09;51.13
55460;BME280;41326;45.302;-122.946;2022-09-21T02:00:59;100590.35;;;22.29;51.05
55460;BME280;41326;45.302;-122.946;2022-09-21T02:03:32;100589.86;;;22.42;51.15
55460;BME280;41326;45.302;-122.946;2022-09-21T02:05:58;100589.39;;;22.45;51.54
55460;BME280;41326;45.302;-122.946;2022-09-21T02:08:29;100590.27;;;22.54;51.84
55460;BME280;41326;45.302;-122.946;2022-09-21T02:11:00;100590.63;;;22.55;52.53
55460;BME280;41326;45.302;-122.946;2022-09-21T02:13:32;100590.37;;;22.58;52.60
55460;BME280;41326;45.302;-122.946;2022-09-21T02:16:12;100591.37;;;22.65;52.43
55460;BME280;41326;45.302;-122.946;2022-09-21T02:18:38;100589.65;;;22.68;52.42
55460;BME280;41326;45.302;-122.946;2022-09-21T02:21:02;100592.43;;;22.69;52.45
55460;BME280;41326;45.302;-122.946;2022-09-21T02:23:36;100596.60;;;22.76;52.25
55460;BME280;41326;45.302;-122.946;2022-09-21T02:26:03;100597.34;;;22.76;52.31
55460;BME280;41326;45.302;-122.946;2022-09-21T02:28:42;100600.78;;;22.86;52.37
55460;BME280;41326;45.302;-122.946;2022-09-21T02:31:05;100602.25;;;22.98;52.57
55460;BME280;41326;45.302;-122.946;2022-09-21T02:33:36;100604.81;;;22.96;52.71
55460;BME280;41326;45.302;-122.946;2022-09-21T02:36:05;100603.12;;;22.89;52.93
55460;BME280;41326;45.302;-122.946;2022-09-21T02:38:38;100605.83;;;22.90;52.92
55460;BME280;41326;45.302;-122.946;2022-09-21T02:41:09;100609.55;;;22.94;52.79
55460;BME280;41326;45.302;-122.946;2022-09-21T02:43:38;100615.12;;;22.90;52.91
55460;BME280;41326;45.302;-122.946;2022-09-21T02:46:07;100619.33;;;23.01;52.60
55460;BME280;41326;45.302;-122.946;2022-09-21T02:48:36;100619.23;;;23.04;52.79
55460;BME280;41326;45.302;-122.946;2022-09-21T02:51:09;100624.66;;;22.90;53.58
55460;BME280;41326;45.302;-122.946;2022-09-21T02:53:37;100627.29;;;22.83;53.88
55460;BME280;41326;45.302;-122.946;2022-09-21T02:56:06;100631.80;;;22.82;53.97
55460;BME280;41326;45.302;-122.946;2022-09-21T02:58:37;100637.66;;;22.83;53.88
55460;BME280;41326;45.302;-122.946;2022-09-21T03:01:06;100639.02;;;22.92;53.62
55460;BME280;41326;45.302;-122.946;2022-09-21T03:03:37;100645.11;;;22.86;53.80
55460;BME280;41326;45.302;-122.946;2022-09-21T03:06:07;100650.62;;;22.89;50.58
55460;BME280;41326;45.302;-122.946;2022-09-21T03:08:37;100653.38;;;22.77;47.71
55460;BME280;41326;45.302;-122.946;2022-09-21T03:11:07;100664.39;;;22.58;46.48
55460;BME280;41326;45.302;-122.946;2022-09-21T03:13:38;100669.06;;;22.41;46.91
55460;BME280;41326;45.302;-122.946;2022-09-21T03:16:09;100678.56;;;22.22;47.19
55460;BME280;41326;45.302;-122.946;2022-09-21T03:18:38;100683.90;;;22.03;48.65
55460;BME280;41326;45.302;-122.946;2022-09-21T03:21:08;100694.67;;;21.82;50.29
55460;BME280;41326;45.302;-122.946;2022-09-21T03:23:39;100703.06;;;21.93;50.38
55460;BME280;41326;45.302;-122.946;2022-09-21T03:26:09;100707.46;;;22.15;46.91
55460;BME280;41326;45.302;-122.946;2022-09-21T03:28:39;100712.83;;;21.95;43.83
55460;BME280;41326;45.302;-122.946;2022-09-21T03:31:09;100721.82;;;21.74;43.51
55460;BME280;41326;45.302;-122.946;2022-09-21T03:33:40;100732.38;;;21.57;44.67
55460;BME280;41326;45.302;-122.946;2022-09-21T03:36:10;100737.10;;;21.42;43.78
55460;BME280;41326;45.302;-122.946;2022-09-21T03:38:41;100741.77;;;21.27;44.96
55460;BME280;41326;45.302;-122.946;2022-09-21T03:41:11;100738.06;;;21.15;43.76
55460;BME280;41326;45.302;-122.946;2022-09-21T03:43:41;100745.83;;;20.95;43.83
55460;BME280;41326;45.302;-122.946;2022-09-21T03:46:12;100752.51;;;20.81;43.96
55460;BME280;41326;45.302;-122.946;2022-09-21T03:48:42;100756.83;;;20.70;43.77
55460;BME280;41326;45.302;-122.946;2022-09-21T03:51:13;100762.10;;;20.56;43.84
55460;BME280;41326;45.302;-122.946;2022-09-21T03:53:44;100763.49;;;20.43;43.90
55460;BME280;41326;45.302;-122.946;2022-09-21T03:56:14;100763.92;;;20.35;44.04
55460;BME280;41326;45.302;-122.946;2022-09-21T03:58:44;100764.90;;;20.23;44.09
55460;BME280;41326;45.302;-122.946;2022-09-21T04:01:15;100768.51;;;20.23;44.23
55460;BME280;41326;45.302;-122.946;2022-09-21T04:03:46;100772.83;;;20.05;44.20
55460;BME280;41326;45.302;-122.946;2022-09-21T04:06:17;100775.61;;;19.93;44.44
55460;BME280;41326;45.302;-122.946;2022-09-21T04:08:46;100778.72;;;19.90;44.32
55460;BME280;41326;45.302;-122.946;2022-09-21T04:11:17;100782.84;;;19.83;45.30
55460;BME280;41326;45.302;-122.946;2022-09-21T04:13:48;100781.25;;;19.68;44.89
55460;BME280;41326;45.302;-122.946;2022-09-21T04:16:17;100779.11;;;19.59;45.31
55460;BME280;41326;45.302;-122.946;2022-09-21T04:18:47;100781.23;;;19.53;45.62
55460;BME280;41326;45.302;-122.946;2022-09-21T04:21:18;100781.72;;;19.47;45.65
55460;BME280;41326;45.302;-122.946;2022-09-21T04:23:49;100781.88;;;19.41;45.59
55460;BME280;41326;45.302;-122.946;2022-09-21T04:26:25;100782.70;;;19.34;45.75
55460;BME280;41326;45.302;-122.946;2022-09-21T04:28:50;100783.72;;;19.30;45.91
55460;BME280;41326;45.302;-122.946;2022-09-21T04:31:20;100782.07;;;19.36;49.33
55460;BME280;41326;45.302;-122.946;2022-09-21T04:33:53;100782.75;;;19.60;49.68
55460;BME280;41326;45.302;-122.946;2022-09-21T04:36:21;100779.52;;;19.78;49.72
55460;BME280;41326;45.302;-122.946;2022-09-21T04:38:52;100774.03;;;20.00;47.17
55460;BME280;41326;45.302;-122.946;2022-09-21T04:41:22;100776.30;;;20.00;44.96
55460;BME280;41326;45.302;-122.946;2022-09-21T04:43:53;100775.50;;;19.83;44.23
55460;BME280;41326;45.302;-122.946;2022-09-21T04:46:24;100776.49;;;19.74;44.74
55460;BME280;41326;45.302;-122.946;2022-09-21T04:48:53;100778.93;;;19.67;44.79
55460;BME280;41326;45.302;-122.946;2022-09-21T04:51:23;100784.89;;;19.68;48.63
55460;BME280;41326;45.302;-122.946;2022-09-21T04:53:53;100791.30;;;19.84;49.05
55460;BME280;41326;45.302;-122.946;2022-09-21T04:56:24;100790.89;;;20.09;48.83
55460;BME280;41326;45.302;-122.946;2022-09-21T04:58:55;100793.79;;;20.26;48.71
55460;BME280;41326;45.302;-122.946;2022-09-21T05:01:25;100796.22;;;20.38;48.71
55460;BME280;41326;45.302;-122.946;2022-09-21T05:03:56;100798.96;;;20.50;48.62
55460;BME280;41326;45.302;-122.946;2022-09-21T05:06:26;100799.04;;;20.59;48.66
55460;BME280;41326;45.302;-122.946;2022-09-21T05:08:56;100801.97;;;20.68;49.23
55460;BME280;41326;45.302;-122.946;2022-09-21T05:11:26;100803.90;;;20.76;46.49
55460;BME280;41326;45.302;-122.946;2022-09-21T05:13:57;100808.42;;;20.63;44.41
55460;BME280;41326;45.302;-122.946;2022-09-21T05:16:27;100808.82;;;20.42;44.56
55460;BME280;41326;45.302;-122.946;2022-09-21T05:18:58;100806.44;;;20.18;44.42
55460;BME280;41326;45.302;-122.946;2022-09-21T05:22:37;100812.40;;;19.89;48.99
55460;BME280;41326;45.302;-122.946;2022-09-21T05:25:08;100813.75;;;19.96;49.16
55460;BME280;41326;45.302;-122.946;2022-09-21T05:27:37;100812.40;;;20.13;49.12
55460;BME280;41326;45.302;-122.946;2022-09-21T05:30:09;100812.68;;;20.28;49.70
55460;BME280;41326;45.302;-122.946;2022-09-21T05:32:47;100814.99;;;20.43;49.81
55460;BME280;41326;45.302;-122.946;2022-09-21T05:35:17;100820.05;;;20.48;49.76
55460;BME280;41326;45.302;-122.946;2022-09-21T05:37:46;100822.04;;;20.63;49.48
55460;BME280;41326;45.302;-122.946;2022-09-21T05:40:12;100824.89;;;20.75;49.21
55460;BME280;41326;45.302;-122.946;2022-09-21T05:42:41;100824.68;;;20.91;48.86
55460;BME280;41326;45.302;-122.946;2022-09-21T05:45:12;100823.31;;;21.03;48.59
55460;BME280;41326;45.302;-122.946;2022-09-21T05:47:47;100820.85;;;20.95;49.23
55460;BME280;41326;45.302;-122.946;2022-09-21T05:50:26;100821.32;;;20.92;50.16
55460;BME280;41326;45.302;-122.946;2022-09-21T05:52:46;100818.05;;;20.90;50.60
55460;BME280;41326;45.302;-122.946;2022-09-21T05:55:19;100817.74;;;20.96;50.46
55460;BME280;41326;45.302;-122.946;2022-09-21T05:57:48;100813.96;;;21.00;50.43
55460;BME280;41326;45.302;-122.946;2022-09-21T06:00:18;100813.70;;;20.98;50.52
55460;BME280;41326;45.302;-122.946;2022-09-21T06:02:52;100813.55;;;21.01;50.50
55460;BME280;41326;45.302;-122.946;2022-09-21T06:05:16;100812.27;;;21.00;50.60
55460;BME280;41326;45.302;-122.946;2022-09-21T06:07:44;100811.07;;;21.10;50.67
55460;BME280;41326;45.302;-122.946;2022-09-21T06:10:15;100808.51;;;21.09;51.45
55460;BME280;41326;45.302;-122.946;2022-09-21T06:12:44;100807.69;;;21.16;51.58
55460;BME280;41326;45.302;-122.946;2022-09-21T06:15:16;100809.30;;;21.24;51.38
55460;BME280;41326;45.302;-122.946;2022-09-21T06:17:44;100809.16;;;21.32;51.15
55460;BME280;41326;45.302;-122.946;2022-09-21T06:20:15;100805.41;;;21.28;51.29
55460;BME280;41326;45.302;-122.946;2022-09-21T06:22:45;100801.15;;;21.28;51.34
55460;BME280;41326;45.302;-122.946;2022-09-21T06:25:16;100801.80;;;21.34;51.19
55460;BME280;41326;45.302;-122.946;2022-09-21T06:27:46;100798.58;;;21.29;51.57
55460;BME280;41326;45.302;-122.946;2022-09-21T06:30:17;100799.92;;;21.26;52.21
55460;BME280;41326;45.302;-122.946;2022-09-21T06:32:47;100799.94;;;21.30;52.45
55460;BME280;41326;45.302;-122.946;2022-09-21T06:35:18;100794.23;;;21.24;52.56
55460;BME280;41326;45.302;-122.946;2022-09-21T06:37:48;100790.63;;;21.26;52.50
55460;BME280;41326;45.302;-122.946;2022-09-21T06:40:18;100786.64;;;21.36;52.18
55460;BME280;41326;45.302;-122.946;2022-09-21T06:42:49;100789.75;;;21.27;52.45
55460;BME280;41326;45.302;-122.946;2022-09-21T06:45:19;100787.10;;;21.18;52.70
55460;BME280;41326;45.302;-122.946;2022-09-21T06:47:51;100782.99;;;21.17;52.93
55460;BME280;41326;45.302;-122.946;2022-09-21T06:50:20;100780.89;;;21.29;53.08
55460;BME280;41326;45.302;-122.946;2022-09-21T06:52:50;100780.55;;;21.27;53.27
55460;BME280;41326;45.302;-122.946;2022-09-21T06:55:21;100781.58;;;21.35;52.99
55460;BME280;41326;45.302;-122.946;2022-09-21T06:57:51;100776.57;;;21.36;52.98
55460;BME280;41326;45.302;-122.946;2022-09-21T07:00:21;100779.47;;;21.34;53.05
55460;BME280;41326;45.302;-122.946;2022-09-21T07:02:51;100782.14;;;21.33;53.05
55460;BME280;41326;45.302;-122.946;2022-09-21T07:05:22;100783.47;;;21.40;52.84
55460;BME280;41326;45.302;-122.946;2022-09-21T07:07:56;100783.29;;;21.39;53.07
55460;BME280;41326;45.302;-122.946;2022-09-21T07:10:23;100787.60;;;21.38;53.28
55460;BME280;41326;45.302;-122.946;2022-09-21T07:12:53;100790.51;;;21.33;53.56
55460;BME280;41326;45.302;-122.946;2022-09-21T07:15:24;100791.59;;;21.37;53.39
55460;BME280;41326;45.302;-122.946;2022-09-21T07:17:54;100790.62;;;21.32;53.45
55460;BME280;41326;45.302;-122.946;2022-09-21T07:20:24;100792.69;;;21.31;53.50
55460;BME280;41326;45.302;-122.946;2022-09-21T07:22:55;100792.17;;;21.36;53.28
55460;BME280;41326;45.302;-122.946;2022-09-21T07:25:25;100786.10;;;21.42;53.15
55460;BME280;41326;45.302;-122.946;2022-09-21T07:27:55;100788.44;;;21.36;53.43
55460;BME280;41326;45.302;-122.946;2022-09-21T07:30:25;100787.23;;;21.44;53.38
55460;BME280;41326;45.302;-122.946;2022-09-21T07:32:56;100789.09;;;21.32;53.75
55460;BME280;41326;45.302;-122.946;2022-09-21T07:35:26;100789.47;;;21.28;53.82
55460;BME280;41326;45.302;-122.946;2022-09-21T07:37:57;100793.87;;;21.29;53.71
55460;BME280;41326;45.302;-122.946;2022-09-21T07:40:27;100794.10;;;21.32;53.58
55460;BME280;41326;45.302;-122.946;2022-09-21T07:42:57;100788.16;;;21.40;53.28
55460;BME280;41326;45.302;-122.946;2022-09-21T07:45:27;100786.61;;;21.32;53.49
55460;BME280;41326;45.302;-122.946;2022-09-21T07:48:01;100782.86;;;21.35;53.43
55460;BME280;41326;45.302;-122.946;2022-09-21T07:50:28;100783.31;;;21.25;53.87
55460;BME280;41326;45.302;-122.946;2022-09-21T07:52:59;100784.89;;;21.26;53.81
55460;BME280;41326;45.302;-122.946;2022-09-21T07:55:29;100784.64;;;21.29;53.66
55460;BME280;41326;45.302;-122.946;2022-09-21T07:57:59;100789.42;;;21.35;53.38
55460;BME280;41326;45.302;-122.946;2022-09-21T08:00:30;100795.82;;;21.40;53.20
55460;BME280;41326;45.302;-122.946;2022-09-21T08:03:01;100794.52;;;21.39;53.19
55460;BME280;41326;45.302;-122.946;2022-09-21T08:05:31;100793.15;;;21.28;53.47
55460;BME280;41326;45.302;-122.946;2022-09-21T08:08:01;100792.96;;;21.26;53.57
55460;BME280;41326;45.302;-122.946;2022-09-21T08:10:32;100794.89;;;21.19;53.89
55460;BME280;41326;45.302;-122.946;2022-09-21T08:13:02;100800.00;;;21.21;53.90
55460;BME280;41326;45.302;-122.946;2022-09-21T08:15:33;100804.72;;;21.26;53.71
55460;BME280;41326;45.302;-122.946;2022-09-21T08:18:03;100804.82;;;21.25;53.67
55460;BME280;41326;45.302;-122.946;2022-09-21T08:20:33;100805.25;;;21.24;53.68
55460;BME280;41326;45.302;-122.946;2022-09-21T08:23:04;100804.13;;;21.30;53.47
55460;BME280;41326;45.302;-122.946;2022-09-21T08:25:34;100801.98;;;21.30;53.43
55460;BME280;41326;45.302;-122.946;2022-09-21T08:28:04;100804.52;;;21.23;53.62
55460;BME280;41326;45.302;-122.946;2022-09-21T08:30:35;100808.84;;;21.17;53.92
55460;BME280;41326;45.302;-122.946;2022-09-21T08:33:05;100810.12;;;21.17;53.95
55460;BME280;41326;45.302;-122.946;2022-09-21T08:35:35;100815.13;;;21.20;53.83
55460;BME280;41326;45.302;-122.946;2022-09-21T08:38:05;100822.29;;;21.28;53.55
55460;BME280;41326;45.302;-122.946;2022-09-21T08:40:39;100826.75;;;21.20;53.70
55460;BME280;41326;45.302;-122.946;2022-09-21T08:43:09;100827.48;;;21.19;53.82
55460;BME280;41326;45.302;-122.946;2022-09-21T08:45:39;100823.60;;;21.21;53.65
55460;BME280;41326;45.302;-122.946;2022-09-21T08:48:10;100823.98;;;21.25;53.51
55460;BME280;41326;45.302;-122.946;2022-09-21T08:50:41;100820.52;;;21.30;53.38
55460;BME280;41326;45.302;-122.946;2022-09-21T08:53:11;100822.37;;;21.21;53.62
55460;BME280;41326;45.302;-122.946;2022-09-21T08:55:38;100826.72;;;21.13;53.83
55460;BME280;41326;45.302;-122.946;2022-09-21T08:58:16;100829.91;;;21.21;53.59
55460;BME280;41326;45.302;-122.946;2022-09-21T09:00:41;100826.58;;;21.22;53.48
55460;BME280;41326;45.302;-122.946;2022-09-21T09:03:24;100820.36;;;21.18;53.55
55460;BME280;41326;45.302;-122.946;2022-09-21T09:05:48;100817.97;;;21.18;53.51
55460;BME280;41326;45.302;-122.946;2022-09-21T09:08:25;100812.52;;;21.19;53.47
55460;BME280;41326;45.302;-122.946;2022-09-21T09:10:44;100813.46;;;21.08;53.79
55460;BME280;41326;45.302;-122.946;2022-09-21T09:13:25;100815.78;;;21.04;53.96
55460;BME280;41326;45.302;-122.946;2022-09-21T09:15:54;100818.60;;;21.08;53.77
55460;BME280;41326;45.302;-122.946;2022-09-21T09:18:17;100819.49;;;21.14;53.57
55460;BME280;41326;45.302;-122.946;2022-09-21T09:20:44;100816.98;;;21.07;53.73
55460;BME280;41326;45.302;-122.946;2022-09-21T09:23:18;100817.59;;;21.10;53.61
55460;BME280;41326;45.302;-122.946;2022-09-21T09:25:45;100813.51;;;21.10;53.53
55460;BME280;41326;45.302;-122.946;2022-09-21T09:28:24;100809.62;;;21.11;53.51
55460;BME280;41326;45.302;-122.946;2022-09-21T09:30:43;100814.16;;;21.16;53.38
55460;BME280;41326;45.302;-122.946;2022-09-21T09:33:19;100811.03;;;21.12;53.47
55460;BME280;41326;45.302;-122.946;2022-09-21T09:35:49;100811.51;;;21.11;53.45
55460;BME280;41326;45.302;-122.946;2022-09-21T09:38:20;100813.13;;;21.09;53.51
55460;BME280;41326;45.302;-122.946;2022-09-21T09:40:57;100811.51;;;21.01;53.70
55460;BME280;41326;45.302;-122.946;2022-09-21T09:43:24;100806.92;;;20.99;53.70
55460;BME280;41326;45.302;-122.946;2022-09-21T09:45:54;100810.14;;;21.03;53.57
55460;BME280;41326;45.302;-122.946;2022-09-21T09:48:31;100816.20;;;21.05;53.45
55460;BME280;41326;45.302;-122.946;2022-09-21T09:50:47;100819.75;;;21.00;53.68
55460;BME280;41326;45.302;-122.946;2022-09-21T09:53:20;100815.82;;;21.04;53.50
55460;BME280;41326;45.302;-122.946;2022-09-21T09:55:50;100815.08;;;21.00;53.57
55460;BME280;41326;45.302;-122.946;2022-09-21T09:58:25;100814.43;;;21.04;53.43
55460;BME280;41326;45.302;-122.946;2022-09-21T10:00:50;100809.12;;;21.02;53.48
55460;BME280;41326;45.302;-122.946;2022-09-21T10:03:24;100804.99;;;21.04;53.35
55460;BME280;41326;45.302;-122.946;2022-09-21T10:05:50;100807.48;;;21.06;53.26
55460;BME280;41326;45.302;-122.946;2022-09-21T10:08:28;100807.67;;;20.99;53.45
55460;BME280;41326;45.302;-122.946;2022-09-21T10:10:50;100807.46;;;21.05;53.26
55460;BME280;41326;45.302;-122.946;2022-09-21T10:13:26;100804.33;;;21.04;53.28
55460;BME280;41326;45.302;-122.946;2022-09-21T10:15:55;100805.13;;;20.98;53.40
55460;BME280;41326;45.302;-122.946;2022-09-21T10:18:25;100801.06;;;20.95;53.47
55460;BME280;41326;45.302;-122.946;2022-09-21T10:20:57;100799.63;;;20.95;53.43
55460;BME280;41326;45.302;-122.946;2022-09-21T10:23:22;100800.35;;;21.00;53.26
55460;BME280;41326;45.302;-122.946;2022-09-21T10:25:58;100803.98;;;20.95;53.35
55460;BME280;41326;45.302;-122.946;2022-09-21T10:28:22;100806.25;;;20.96;53.35
55460;BME280;41326;45.302;-122.946;2022-09-21T10:33:24;100811.76;;;20.92;53.40
55460;BME280;41326;45.302;-122.946;2022-09-21T10:35:54;100819.25;;;20.87;53.52
55460;BME280;41326;45.302;-122.946;2022-09-21T10:38:25;100815.39;;;20.89;53.44
55460;BME280;41326;45.302;-122.946;2022-09-21T10:40:55;100810.25;;;20.94;53.22
55460;BME280;41326;45.302;-122.946;2022-09-21T10:43:30;100814.23;;;20.88;53.38
55460;BME280;41326;45.302;-122.946;2022-09-21T10:45:58;100815.14;;;20.92;53.18
55460;BME280;41326;45.302;-122.946;2022-09-21T10:48:28;100818.93;;;20.79;53.59
55460;BME280;41326;45.302;-122.946;2022-09-21T10:50:58;100818.10;;;20.79;53.55
55460;BME280;41326;45.302;-122.946;2022-09-21T10:53:30;100819.77;;;20.78;53.52
55460;BME280;41326;45.302;-122.946;2022-09-21T10:56:02;100818.05;;;20.78;53.48
55460;BME280;41326;45.302;-122.946;2022-09-21T10:58:28;100817.87;;;20.81;53.36
55460;BME280;41326;45.302;-122.946;2022-09-21T11:03:37;100811.20;;;20.83;53.19
55460;BME280;41326;45.302;-122.946;2022-09-21T11:06:02;100812.09;;;20.87;53.04
55460;BME280;41326;45.302;-122.946;2022-09-21T11:08:35;100807.10;;;20.88;53.00
55460;BME280;41326;45.302;-122.946;2022-09-21T11:11:12;100802.26;;;20.88;52.95
55460;BME280;41326;45.302;-122.946;2022-09-21T11:13:35;100805.73;;;20.83;53.05
55460;BME280;41326;45.302;-122.946;2022-09-21T11:16:11;100805.34;;;20.85;52.98
55460;BME280;41326;45.302;-122.946;2022-09-21T11:18:38;100805.15;;;20.87;52.87
55460;BME280;41326;45.302;-122.946;2022-09-21T11:21:07;100802.05;;;20.73;53.21
55460;BME280;41326;45.302;-122.946;2022-09-21T11:23:42;100801.59;;;20.74;53.16
55460;BME280;41326;45.302;-122.946;2022-09-21T11:26:08;100797.52;;;20.73;53.17
55460;BME280;41326;45.302;-122.946;2022-09-21T11:28:36;100798.73;;;20.78;53.01
55460;BME280;41326;45.302;-122.946;2022-09-21T11:33:44;100796.49;;;20.66;53.30
55460;BME280;41326;45.302;-122.946;2022-09-21T11:36:10;100800.14;;;20.62;53.37
55460;BME280;41326;45.302;-122.946;2022-09-21T11:38:45;100800.99;;;20.60;53.38
55460;BME280;41326;45.302;-122.946;2022-09-21T11:41:16;100802.26;;;20.68;53.12
55460;BME280;41326;45.302;-122.946;2022-09-21T11:43:46;100798.64;;;20.66;53.14
55460;BME280;41326;45.302;-122.946;2022-09-21T11:46:21;100797.11;;;20.67;53.09
55460;BME280;41326;45.302;-122.946;2022-09-21T11:48:45;100794.00;;;20.60;53.26
55460;BME280;41326;45.302;-122.946;2022-09-21T11:51:18;100793.15;;;20.59;53.26
55460;BME280;41326;45.302;-122.946;2022-09-21T11:53:44;100794.55;;;20.69;52.95
55460;BME280;41326;45.302;-122.946;2022-09-21T11:56:20;100795.11;;;20.60;53.16
55460;BME280;41326;45.302;-122.946;2022-09-21T11:58:39;100793.46;;;20.51;53.41
55460;BME280;41326;45.302;-122.946;2022-09-21T12:01:15;100793.91;;;20.65;52.99
55460;BME280;41326;45.302;-122.946;2022-09-21T12:03:51;100792.58;;;20.64;52.97
55460;BME280;41326;45.302;-122.946;2022-09-21T12:06:16;100792.08;;;20.66;52.89
55460;BME280;41326;45.302;-122.946;2022-09-21T12:08:50;100790.33;;;20.61;52.99
55460;BME280;41326;45.302;-122.946;2022-09-21T12:11:15;100791.10;;;20.60;53.00
55460;BME280;41326;45.302;-122.946;2022-09-21T12:13:43;100795.41;;;20.51;53.23
55460;BME280;41326;45.302;-122.946;2022-09-21T12:16:14;100797.40;;;20.58;52.98
55460;BME280;41326;45.302;-122.946;2022-09-21T12:18:44;100798.55;;;20.54;53.11
55460;BME280;41326;45.302;-122.946;2022-09-21T12:21:16;100799.19;;;20.54;53.08
55460;BME280;41326;45.302;-122.946;2022-09-21T12:23:46;100797.87;;;20.43;53.36
55460;BME280;41326;45.302;-122.946;2022-09-21T12:26:12;100799.47;;;20.47;53.21
55460;BME280;41326;45.302;-122.946;2022-09-21T12:28:43;100800.25;;;20.61;52.80
55460;BME280;41326;45.302;-122.946;2022-09-21T12:31:17;100810.59;;;20.57;52.86
55460;BME280;41326;45.302;-122.946;2022-09-21T12:33:46;100809.35;;;20.52;52.96
55460;BME280;41326;45.302;-122.946;2022-09-21T12:36:17;100807.04;;;20.53;52.89
55460;BME280;41326;45.302;-122.946;2022-09-21T12:38:49;100806.41;;;20.45;53.08
55460;BME280;41326;45.302;-122.946;2022-09-21T12:41:17;100813.28;;;20.40;53.23
55460;BME280;41326;45.302;-122.946;2022-09-21T12:43:47;100826.39;;;20.45;53.02
55460;BME280;41326;45.302;-122.946;2022-09-21T12:46:17;100835.42;;;20.45;52.99